sensor_id;sensor_type;location;lat;lon;timestamp;pressure;altitude;pressure_sealevel;temperature;humidity
70976;BME280;58635;51.198;6.010;2023-02-19T00:01:37;101684.13;;;13.92;67.09
70976;BME280;58635;51.198;6.010;2023-02-19T00:04:10;101687.78;;;13.98;66.90
70976;BME280;58635;51.198;6.010;2023-02-19T00:06:36;101686.16;;;13.97;66.98
70976;BME280;58635;51.198;6.010;2023-02-19T00:09:03;101695.75;;;13.96;66.97
70976;BME280;58635;51.198;6.010;2023-02-19T00:11:31;101685.34;;;13.96;67.06
70976;BME280;58635;51.198;6.010;2023-02-19T00:13:58;101677.38;;;13.98;66.84
70976;BME280;58635;51.198;6.010;2023-02-19T00:16:44;101672.97;;;13.98;66.94
70976;BME280;58635;51.198;6.010;2023-02-19T00:19:15;101672.19;;;13.98;66.80
70976;BME280;58635;51.198;6.010;2023-02-19T00:21:40;101678.19;;;13.98;66.93
70976;BME280;58635;51.198;6.010;2023-02-19T00:24:07;101679.78;;;13.99;66.75
70976;BME280;58635;51.198;6.010;2023-02-19T00:26:33;101677.97;;;14.00;66.60
70976;BME280;58635;51.198;6.010;2023-02-19T00:28:59;101675.56;;;13.98;66.56
70976;BME280;58635;51.198;6.010;2023-02-19T00:31:29;101679.78;;;13.99;66.43
70976;BME280;58635;51.198;6.010;2023-02-19T00:33:59;101671.78;;;14.01;66.45
70976;BME280;58635;51.198;6.010;2023-02-19T00:36:25;101669.38;;;13.99;66.43
70976;BME280;58635;51.198;6.010;2023-02-19T00:38:51;101666.56;;;14.01;66.42
70976;BME280;58635;51.198;6.010;2023-02-19T00:41:18;101661.94;;;13.96;66.32
70976;BME280;58635;51.198;6.010;2023-02-19T00:43:45;101665.78;;;14.00;66.24
70976;BME280;58635;51.198;6.010;2023-02-19T00:46:10;101667.78;;;13.98;66.23
70976;BME280;58635;51.198;6.010;2023-02-19T00:48:35;101664.72;;;13.95;66.34
70976;BME280;58635;51.198;6.010;2023-02-19T00:51:01;101663.94;;;13.94;66.49
70976;BME280;58635;51.198;6.010;2023-02-19T00:53:26;101662.13;;;13.95;66.41
70976;BME280;58635;51.198;6.010;2023-02-19T00:55:51;101660.97;;;13.97;66.20
70976;BME280;58635;51.198;6.010;2023-02-19T00:58:17;101667.13;;;13.96;66.31
70976;BME280;58635;51.198;6.010;2023-02-19T01:00:42;101657.38;;;13.98;66.13
70976;BME280;58635;51.198;6.010;2023-02-19T01:03:08;101660.34;;;13.95;66.16
70976;BME280;58635;51.198;6.010;2023-02-19T01:05:33;101656.56;;;13.98;66.14
70976;BME280;58635;51.198;6.010;2023-02-19T01:07:58;101663.56;;;13.97;66.16
70976;BME280;58635;51.198;6.010;2023-02-19T01:10:24;101661.78;;;13.98;66.16
70976;BME280;58635;51.198;6.010;2023-02-19T01:12:49;101662.56;;;13.98;66.13
70976;BME280;58635;51.198;6.010;2023-02-19T01:15:14;101660.97;;;13.97;66.04
70976;BME280;58635;51.198;6.010;2023-02-19T01:17:40;101666.78;;;13.99;65.93
70976;BME280;58635;51.198;6.010;2023-02-19T01:20:05;101666.56;;;14.01;65.86
70976;BME280;58635;51.198;6.010;2023-02-19T01:22:31;101672.56;;;14.01;65.91
70976;BME280;58635;51.198;6.010;2023-02-19T01:24:56;101679.38;;;14.02;65.80
70976;BME280;58635;51.198;6.010;2023-02-19T01:27:21;101678.38;;;14.03;65.84
70976;BME280;58635;51.198;6.010;2023-02-19T01:29:47;101671.19;;;14.05;65.79
70976;BME280;58635;51.198;6.010;2023-02-19T01:32:12;101678.19;;;14.05;65.88
70976;BME280;58635;51.198;6.010;2023-02-19T01:34:37;101680.00;;;14.04;65.77
70976;BME280;58635;51.198;6.010;2023-02-19T01:37:03;101682.38;;;14.06;65.83
70976;BME280;58635;51.198;6.010;2023-02-19T01:39:30;101684.00;;;14.07;65.76
70976;BME280;58635;51.198;6.010;2023-02-19T01:41:55;101692.59;;;14.08;65.69
70976;BME280;58635;51.198;6.010;2023-02-19T01:46:47;101686.41;;;14.09;65.58
70976;BME280;58635;51.198;6.010;2023-02-19T01:49:30;101692.22;;;14.11;65.72
70976;BME280;58635;51.198;6.010;2023-02-19T01:52:00;101694.84;;;14.11;65.79
70976;BME280;58635;51.198;6.010;2023-02-19T01:54:36;101687.22;;;14.09;65.59
70976;BME280;58635;51.198;6.010;2023-02-19T01:57:08;101689.00;;;14.09;65.62
70976;BME280;58635;51.198;6.010;2023-02-19T01:59:36;101693.59;;;14.07;65.65
70976;BME280;58635;51.198;6.010;2023-02-19T02:02:02;101694.41;;;14.07;65.69
70976;BME280;58635;51.198;6.010;2023-02-19T02:04:30;101693.41;;;14.08;65.74
70976;BME280;58635;51.198;6.010;2023-02-19T02:06:56;101702.00;;;14.09;65.60
70976;BME280;58635;51.198;6.010;2023-02-19T02:09:28;101690.00;;;14.08;65.65
70976;BME280;58635;51.198;6.010;2023-02-19T02:12:13;101690.19;;;14.06;65.47
70976;BME280;58635;51.198;6.010;2023-02-19T02:14:42;101693.41;;;14.08;65.34
70976;BME280;58635;51.198;6.010;2023-02-19T02:17:25;101693.41;;;14.08;65.53
70976;BME280;58635;51.198;6.010;2023-02-19T02:22:33;101687.41;;;14.08;65.53
70976;BME280;58635;51.198;6.010;2023-02-19T02:30:49;101683.97;;;14.00;65.30
70976;BME280;58635;51.198;6.010;2023-02-19T02:36:01;101688.38;;;14.00;65.21
70976;BME280;58635;51.198;6.010;2023-02-19T02:38:30;101683.97;;;14.00;65.29
70976;BME280;58635;51.198;6.010;2023-02-19T02:40:57;101686.19;;;14.03;65.13
70976;BME280;58635;51.198;6.010;2023-02-19T02:43:23;101690.41;;;14.04;65.04
70976;BME280;58635;51.198;6.010;2023-02-19T02:45:49;101690.41;;;14.04;64.97
70976;BME280;58635;51.198;6.010;2023-02-19T02:48:20;101694.78;;;14.04;64.98
70976;BME280;58635;51.198;6.010;2023-02-19T02:50:55;101697.19;;;14.05;65.07
70976;BME280;58635;51.198;6.010;2023-02-19T02:53:35;101696.41;;;14.05;64.74
70976;BME280;58635;51.198;6.010;2023-02-19T02:56:22;101694.00;;;14.03;64.82
70976;BME280;58635;51.198;6.010;2023-02-19T02:58:49;101693.19;;;14.03;64.89
70976;BME280;58635;51.198;6.010;2023-02-19T03:01:30;101698.19;;;14.04;64.95
70976;BME280;58635;51.198;6.010;2023-02-19T03:04:35;101703.19;;;14.06;64.82
70976;BME280;58635;51.198;6.010;2023-02-19T03:07:06;101694.78;;;14.04;64.61
70976;BME280;58635;51.198;6.010;2023-02-19T03:09:37;101706.81;;;14.05;64.72
70976;BME280;58635;51.198;6.010;2023-02-19T03:12:06;101704.41;;;14.03;64.59
70976;BME280;58635;51.198;6.010;2023-02-19T03:15:12;101707.19;;;14.02;64.58
70976;BME280;58635;51.198;6.010;2023-02-19T03:18:00;101715.19;;;14.00;64.75
70976;BME280;58635;51.198;6.010;2023-02-19T03:20:50;101709.00;;;14.01;64.69
70976;BME280;58635;51.198;6.010;2023-02-19T03:23:19;101707.38;;;14.00;64.68
70976;BME280;58635;51.198;6.010;2023-02-19T03:26:07;101710.78;;;14.01;64.59
70976;BME280;58635;51.198;6.010;2023-02-19T03:28:37;101709.19;;;14.00;64.70
70976;BME280;58635;51.198;6.010;2023-02-19T03:31:23;101718.78;;;13.99;64.61
70976;BME280;58635;51.198;6.010;2023-02-19T03:33:56;101717.34;;;13.97;64.56
70976;BME280;58635;51.198;6.010;2023-02-19T03:36:27;101712.53;;;13.94;64.78
70976;BME280;58635;51.198;6.010;2023-02-19T03:38:58;101714.75;;;13.97;64.94
70976;BME280;58635;51.198;6.010;2023-02-19T03:47:06;101731.19;;;13.97;64.88
70976;BME280;58635;51.198;6.010;2023-02-19T03:54:56;101748.75;;;13.95;64.79
70976;BME280;58635;51.198;6.010;2023-02-19T03:57:47;101751.75;;;13.92;64.96
70976;BME280;58635;51.198;6.010;2023-02-19T04:00:21;101753.75;;;13.90;65.02
70976;BME280;58635;51.198;6.010;2023-02-19T04:05:42;101763.34;;;13.90;64.93
70976;BME280;58635;51.198;6.010;2023-02-19T04:08:16;101758.53;;;13.87;65.04
70976;BME280;58635;51.198;6.010;2023-02-19T04:10:44;101768.94;;;13.87;65.00
70976;BME280;58635;51.198;6.010;2023-02-19T04:13:21;101767.13;;;13.87;65.19
70976;BME280;58635;51.198;6.010;2023-02-19T04:15:50;101773.34;;;13.86;65.20
70976;BME280;58635;51.198;6.010;2023-02-19T04:18:20;101773.34;;;13.86;65.14
70976;BME280;58635;51.198;6.010;2023-02-19T04:20:47;101780.34;;;13.86;65.44
70976;BME280;58635;51.198;6.010;2023-02-19T04:23:16;101776.94;;;13.85;65.62
70976;BME280;58635;51.198;6.010;2023-02-19T04:25:46;101781.94;;;13.87;65.42
70976;BME280;58635;51.198;6.010;2023-02-19T04:28:13;101789.94;;;13.85;65.41
70976;BME280;58635;51.198;6.010;2023-02-19T04:30:41;101788.94;;;13.86;65.17
70976;BME280;58635;51.198;6.010;2023-02-19T04:33:07;101793.16;;;13.87;65.27
70976;BME280;58635;51.198;6.010;2023-02-19T04:35:32;101785.34;;;13.87;65.26
70976;BME280;58635;51.198;6.010;2023-02-19T04:37:58;101789.94;;;13.85;65.29
70976;BME280;58635;51.198;6.010;2023-02-19T04:40:23;101793.16;;;13.87;65.21
70976;BME280;58635;51.198;6.010;2023-02-19T04:42:49;101797.53;;;13.87;65.24
70976;BME280;58635;51.198;6.010;2023-02-19T04:45:15;101797.75;;;13.85;65.14
70976;BME280;58635;51.198;6.010;2023-02-19T04:47:40;101800.50;;;13.84;65.20
70976;BME280;58635;51.198;6.010;2023-02-19T04:50:06;101802.09;;;13.85;65.25
70976;BME280;58635;51.198;6.010;2023-02-19T04:52:32;101817.72;;;13.85;65.14
70976;BME280;58635;51.198;6.010;2023-02-19T04:54:57;101811.91;;;13.83;65.03
70976;BME280;58635;51.198;6.010;2023-02-19T04:57:22;101814.50;;;13.83;65.09
70976;BME280;58635;51.198;6.010;2023-02-19T04:59:48;101818.28;;;13.80;65.12
70976;BME280;58635;51.198;6.010;2023-02-19T05:02:13;101830.69;;;13.78;65.11
70976;BME280;58635;51.198;6.010;2023-02-19T05:04:39;101829.88;;;13.78;65.12
70976;BME280;58635;51.198;6.010;2023-02-19T05:07:05;101825.47;;;13.78;65.10
70976;BME280;58635;51.198;6.010;2023-02-19T05:09:30;101834.09;;;13.79;65.06
70976;BME280;58635;51.198;6.010;2023-02-19T05:11:55;101844.47;;;13.79;65.09
70976;BME280;58635;51.198;6.010;2023-02-19T05:14:21;101847.28;;;13.77;65.10
70976;BME280;58635;51.198;6.010;2023-02-19T05:16:46;101848.47;;;13.74;65.11
70976;BME280;58635;51.198;6.010;2023-02-19T05:19:12;101855.47;;;13.74;65.24
70976;BME280;58635;51.198;6.010;2023-02-19T05:21:37;101856.41;;;13.73;65.21
70976;BME280;58635;51.198;6.010;2023-02-19T05:24:04;101858.22;;;13.72;65.09
70976;BME280;58635;51.198;6.010;2023-02-19T05:26:30;101856.41;;;13.73;65.13
70976;BME280;58635;51.198;6.010;2023-02-19T05:28:55;101861.81;;;13.71;65.22
70976;BME280;58635;51.198;6.010;2023-02-19T05:37:48;101863.38;;;13.66;65.15
70976;BME280;58635;51.198;6.010;2023-02-19T05:40:13;101870.19;;;13.67;65.05
70976;BME280;58635;51.198;6.010;2023-02-19T05:42:41;101871.78;;;13.68;65.26
70976;BME280;58635;51.198;6.010;2023-02-19T05:45:07;101876.19;;;13.67;65.11
70976;BME280;58635;51.198;6.010;2023-02-19T05:47:32;101874.59;;;13.66;65.03
70976;BME280;58635;51.198;6.010;2023-02-19T05:49:58;101876.38;;;13.66;65.05
70976;BME280;58635;51.198;6.010;2023-02-19T05:52:23;101884.19;;;13.66;65.13
70976;BME280;58635;51.198;6.010;2023-02-19T05:54:49;101878.19;;;13.65;65.13
70976;BME280;58635;51.198;6.010;2023-02-19T05:57:15;101888.56;;;13.65;65.08
70976;BME280;58635;51.198;6.010;2023-02-19T05:59:41;101881.16;;;13.62;64.86
70976;BME280;58635;51.198;6.010;2023-02-19T06:02:08;101892.50;;;13.61;64.80
70976;BME280;58635;51.198;6.010;2023-02-19T06:04:34;101888.50;;;13.59;64.90
70976;BME280;58635;51.198;6.010;2023-02-19T06:07:00;101884.09;;;13.59;64.98
70976;BME280;58635;51.198;6.010;2023-02-19T06:09:26;101888.88;;;13.56;64.97
70976;BME280;58635;51.198;6.010;2023-02-19T06:11:52;101893.69;;;13.59;64.96
70976;BME280;58635;51.198;6.010;2023-02-19T06:14:17;101895.31;;;13.60;65.04
70976;BME280;58635;51.198;6.010;2023-02-19T06:16:43;101897.91;;;13.60;64.82
70976;BME280;58635;51.198;6.010;2023-02-19T06:19:09;101899.69;;;13.59;64.86
70976;BME280;58635;51.198;6.010;2023-02-19T06:21:35;101894.50;;;13.59;64.99
70976;BME280;58635;51.198;6.010;2023-02-19T06:24:05;101900.88;;;13.57;64.91
70976;BME280;58635;51.198;6.010;2023-02-19T06:26:30;101901.06;;;13.55;64.96
70976;BME280;58635;51.198;6.010;2023-02-19T06:28:56;101896.44;;;13.51;64.98
70976;BME280;58635;51.198;6.010;2023-02-19T06:31:23;101905.66;;;13.53;64.76
70976;BME280;58635;51.198;6.010;2023-02-19T06:33:50;101908.44;;;13.52;64.82
70976;BME280;58635;51.198;6.010;2023-02-19T06:36:18;101916.84;;;13.54;64.79
70976;BME280;58635;51.198;6.010;2023-02-19T06:38:44;101925.66;;;13.53;64.83
70976;BME280;58635;51.198;6.010;2023-02-19T06:41:12;101926.63;;;13.52;64.70
70976;BME280;58635;51.198;6.010;2023-02-19T06:43:41;101927.78;;;13.49;64.72
70976;BME280;58635;51.198;6.010;2023-02-19T06:46:07;101933.00;;;13.49;64.90
70976;BME280;58635;51.198;6.010;2023-02-19T06:48:35;101931.38;;;13.48;64.76
70976;BME280;58635;51.198;6.010;2023-02-19T06:51:02;101930.38;;;13.49;64.57
70976;BME280;58635;51.198;6.010;2023-02-19T06:53:27;101941.59;;;13.50;64.64
70976;BME280;58635;51.198;6.010;2023-02-19T06:55:59;101949.22;;;13.51;64.70
70976;BME280;58635;51.198;6.010;2023-02-19T06:58:26;101950.38;;;13.49;64.42
70976;BME280;58635;51.198;6.010;2023-02-19T07:00:52;101953.16;;;13.47;64.76
70976;BME280;58635;51.198;6.010;2023-02-19T07:03:18;101958.81;;;13.51;64.46
70976;BME280;58635;51.198;6.010;2023-02-19T07:05:43;101971.00;;;13.50;64.45
70976;BME280;58635;51.198;6.010;2023-02-19T07:08:08;101967.41;;;13.51;64.37
70976;BME280;58635;51.198;6.010;2023-02-19T07:10:34;101961.56;;;13.49;64.35
70976;BME280;58635;51.198;6.010;2023-02-19T07:12:59;101957.19;;;13.50;64.46
70976;BME280;58635;51.198;6.010;2023-02-19T07:15:26;101962.03;;;13.53;64.22
70976;BME280;58635;51.198;6.010;2023-02-19T07:17:52;101970.44;;;13.55;64.31
70976;BME280;58635;51.198;6.010;2023-02-19T07:20:18;101975.66;;;13.55;64.14
70976;BME280;58635;51.198;6.010;2023-02-19T07:22:44;101975.66;;;13.55;64.18
70976;BME280;58635;51.198;6.010;2023-02-19T07:25:10;101979.66;;;13.57;64.16
70976;BME280;58635;51.198;6.010;2023-02-19T07:27:37;101981.47;;;13.57;64.13
70976;BME280;58635;51.198;6.010;2023-02-19T07:30:03;101985.66;;;13.58;63.98
70976;BME280;58635;51.198;6.010;2023-02-19T07:32:28;101997.88;;;13.57;64.03
70976;BME280;58635;51.198;6.010;2023-02-19T07:34:54;102009.25;;;13.56;63.84
70976;BME280;58635;51.198;6.010;2023-02-19T07:37:19;102008.44;;;13.56;64.02
70976;BME280;58635;51.198;6.010;2023-02-19T07:39:45;102015.69;;;13.60;63.91
70976;BME280;58635;51.198;6.010;2023-02-19T07:42:10;102019.91;;;13.61;63.79
70976;BME280;58635;51.198;6.010;2023-02-19T07:44:37;102026.38;;;13.65;64.05
70976;BME280;58635;51.198;6.010;2023-02-19T07:47:02;102027.59;;;13.69;63.78
70976;BME280;58635;51.198;6.010;2023-02-19T07:49:27;102035.81;;;13.73;63.81
70976;BME280;58635;51.198;6.010;2023-02-19T07:51:53;102033.69;;;13.77;63.68
70976;BME280;58635;51.198;6.010;2023-02-19T07:54:18;102029.09;;;13.79;63.54
70976;BME280;58635;51.198;6.010;2023-02-19T07:56:44;102028.72;;;13.82;63.38
70976;BME280;58635;51.198;6.010;2023-02-19T07:59:09;102031.13;;;13.83;63.35
70976;BME280;58635;51.198;6.010;2023-02-19T08:01:35;102037.78;;;13.86;63.30
70976;BME280;58635;51.198;6.010;2023-02-19T08:04:18;102049.00;;;13.86;63.10
70976;BME280;58635;51.198;6.010;2023-02-19T08:06:45;102048.19;;;13.86;63.14
70976;BME280;58635;51.198;6.010;2023-02-19T08:09:10;102049.00;;;13.86;62.90
70976;BME280;58635;51.198;6.010;2023-02-19T08:11:36;102047.81;;;13.89;62.81
70976;BME280;58635;51.198;6.010;2023-02-19T08:14:23;102057.84;;;13.92;62.72
70976;BME280;58635;51.198;6.010;2023-02-19T08:16:50;102070.47;;;13.95;62.67
70976;BME280;58635;51.198;6.010;2023-02-19T08:19:16;102072.28;;;13.94;62.52
70976;BME280;58635;51.198;6.010;2023-02-19T08:21:43;102074.88;;;13.94;62.51
70976;BME280;58635;51.198;6.010;2023-02-19T08:24:08;102082.88;;;13.93;62.50
70976;BME280;58635;51.198;6.010;2023-02-19T08:26:34;102083.84;;;13.92;62.54
70976;BME280;58635;51.198;6.010;2023-02-19T08:29:00;102094.25;;;13.92;62.40
70976;BME280;58635;51.198;6.010;2023-02-19T08:31:25;102093.66;;;13.90;62.54
70976;BME280;58635;51.198;6.010;2023-02-19T08:33:51;102093.03;;;13.88;62.76
70976;BME280;58635;51.198;6.010;2023-02-19T08:36:16;102092.03;;;13.89;62.75
70976;BME280;58635;51.198;6.010;2023-02-19T08:38:42;102084.75;;;13.84;62.90
70976;BME280;58635;51.198;6.010;2023-02-19T08:41:10;102096.97;;;13.84;63.12
70976;BME280;58635;51.198;6.010;2023-02-19T08:43:36;102101.34;;;13.83;63.07
70976;BME280;58635;51.198;6.010;2023-02-19T08:46:02;102101.34;;;13.83;63.32
70976;BME280;58635;51.198;6.010;2023-02-19T08:48:33;102096.16;;;13.83;63.23
70976;BME280;58635;51.198;6.010;2023-02-19T08:54:24;102088.28;;;13.77;63.41
70976;BME280;58635;51.198;6.010;2023-02-19T08:56:49;102102.97;;;13.84;63.52
70976;BME280;58635;51.198;6.010;2023-02-19T08:59:18;102112.22;;;13.87;63.57
70976;BME280;58635;51.198;6.010;2023-02-19T09:01:44;102097.94;;;13.83;63.51
70976;BME280;58635;51.198;6.010;2023-02-19T09:04:13;102109.97;;;13.84;63.57
70976;BME280;58635;51.198;6.010;2023-02-19T09:06:38;102114.34;;;13.83;63.63
70976;BME280;58635;51.198;6.010;2023-02-19T09:09:04;102110.16;;;13.82;63.48
70976;BME280;58635;51.198;6.010;2023-02-19T09:11:29;102117.94;;;13.82;63.48
70976;BME280;58635;51.198;6.010;2023-02-19T09:13:55;102121.16;;;13.84;63.71
70976;BME280;58635;51.198;6.010;2023-02-19T09:16:22;102128.06;;;13.92;63.73
70976;BME280;58635;51.198;6.010;2023-02-19T09:18:48;102129.97;;;13.98;63.50
70976;BME280;58635;51.198;6.010;2023-02-19T09:21:13;102133.00;;;14.01;63.42
70976;BME280;58635;51.198;6.010;2023-02-19T09:23:39;102133.78;;;14.02;63.47
70976;BME280;58635;51.198;6.010;2023-02-19T09:26:05;102139.25;;;14.07;63.33
70976;BME280;58635;51.198;6.010;2023-02-19T09:28:35;102146.94;;;14.15;63.37
70976;BME280;58635;51.198;6.010;2023-02-19T09:31:04;102141.47;;;14.25;63.19
70976;BME280;58635;51.198;6.010;2023-02-19T09:33:31;102136.94;;;14.33;63.27
70976;BME280;58635;51.198;6.010;2023-02-19T09:36:01;102141.22;;;14.41;62.94
70976;BME280;58635;51.198;6.010;2023-02-19T09:38:27;102141.69;;;14.45;63.02
70976;BME280;58635;51.198;6.010;2023-02-19T09:40:56;102142.75;;;14.50;62.71
70976;BME280;58635;51.198;6.010;2023-02-19T09:43:25;102138.16;;;14.52;62.67
70976;BME280;58635;51.198;6.010;2023-02-19T09:46:08;102145.97;;;14.52;62.56
70976;BME280;58635;51.198;6.010;2023-02-19T09:48:36;102143.94;;;14.48;62.54
70976;BME280;58635;51.198;6.010;2023-02-19T09:51:02;102140.31;;;14.49;62.53
70976;BME280;58635;51.198;6.010;2023-02-19T09:53:33;102142.56;;;14.52;62.52
70976;BME280;58635;51.198;6.010;2023-02-19T09:56:05;102156.63;;;14.57;62.44
70976;BME280;58635;51.198;6.010;2023-02-19T09:58:44;102148.25;;;14.62;62.37
70976;BME280;58635;51.198;6.010;2023-02-19T10:01:11;102159.09;;;14.66;62.25
70976;BME280;58635;51.198;6.010;2023-02-19T10:03:38;102169.78;;;14.71;62.12
70976;BME280;58635;51.198;6.010;2023-02-19T10:08:38;102172.94;;;14.66;62.01
70976;BME280;58635;51.198;6.010;2023-02-19T10:11:08;102186.31;;;14.63;62.09
70976;BME280;58635;51.198;6.010;2023-02-19T10:13:45;102197.72;;;14.62;62.08
70976;BME280;58635;51.198;6.010;2023-02-19T10:16:15;102196.13;;;14.61;61.97
70976;BME280;58635;51.198;6.010;2023-02-19T10:18:43;102197.13;;;14.60;62.11
70976;BME280;58635;51.198;6.010;2023-02-19T10:21:27;102200.94;;;14.64;62.49
70976;BME280;58635;51.198;6.010;2023-02-19T10:23:56;102199.03;;;14.73;62.27
70976;BME280;58635;51.198;6.010;2023-02-19T10:26:24;102204.38;;;14.86;62.35
70976;BME280;58635;51.198;6.010;2023-02-19T10:28:50;102211.88;;;14.96;61.94
70976;BME280;58635;51.198;6.010;2023-02-19T10:31:18;102220.72;;;15.01;61.56
70976;BME280;58635;51.198;6.010;2023-02-19T10:34:16;102232.41;;;15.05;61.36
70976;BME280;58635;51.198;6.010;2023-02-19T10:36:42;102231.03;;;15.09;61.39
70976;BME280;58635;51.198;6.010;2023-02-19T10:41:48;102238.28;;;15.14;60.97
70976;BME280;58635;51.198;6.010;2023-02-19T10:44:21;102236.47;;;15.14;60.89
70976;BME280;58635;51.198;6.010;2023-02-19T10:46:52;102243.94;;;15.17;60.88
70976;BME280;58635;51.198;6.010;2023-02-19T10:49:36;102254.59;;;15.23;60.31
70976;BME280;58635;51.198;6.010;2023-02-19T10:52:31;102253.22;;;15.27;60.79
70976;BME280;58635;51.198;6.010;2023-02-19T10:55:28;102264.09;;;15.30;60.26
70976;BME280;58635;51.198;6.010;2023-02-19T10:57:54;102263.72;;;15.33;60.15
70976;BME280;58635;51.198;6.010;2023-02-19T11:00:22;102269.00;;;15.40;60.07
70976;BME280;58635;51.198;6.010;2023-02-19T11:03:21;102260.41;;;15.46;59.54
70976;BME280;58635;51.198;6.010;2023-02-19T11:06:07;102272.91;;;15.57;59.47
70976;BME280;58635;51.198;6.010;2023-02-19T11:08:54;102279.22;;;15.63;59.06
70976;BME280;58635;51.198;6.010;2023-02-19T11:11:38;102280.63;;;15.65;58.92
70976;BME280;58635;51.198;6.010;2023-02-19T11:14:23;102279.03;;;15.64;58.62
70976;BME280;58635;51.198;6.010;2023-02-19T11:16:52;102280.63;;;15.65;58.71
70976;BME280;58635;51.198;6.010;2023-02-19T11:21:55;102271.75;;;15.60;58.60
70976;BME280;58635;51.198;6.010;2023-02-19T11:26:48;102266.78;;;15.65;58.21
70976;BME280;58635;51.198;6.010;2023-02-19T11:29:20;102266.59;;;15.66;57.76
70976;BME280;58635;51.198;6.010;2023-02-19T11:31:51;102272.63;;;15.67;57.97
70976;BME280;58635;51.198;6.010;2023-02-19T11:36:48;102254.78;;;15.70;57.88
70976;BME280;58635;51.198;6.010;2023-02-19T11:39:19;102247.16;;;15.69;58.11
70976;BME280;58635;51.198;6.010;2023-02-19T11:42:18;102243.59;;;15.76;57.84
70976;BME280;58635;51.198;6.010;2023-02-19T11:50:47;102248.69;;;15.91;57.47
70976;BME280;58635;51.198;6.010;2023-02-19T11:53:31;102241.66;;;15.92;57.52
70976;BME280;58635;51.198;6.010;2023-02-19T11:59:02;102247.69;;;15.92;57.46
70976;BME280;58635;51.198;6.010;2023-02-19T12:13:24;102242.72;;;16.04;57.15
70976;BME280;58635;51.198;6.010;2023-02-19T12:21:29;102256.22;;;16.14;56.77
70976;BME280;58635;51.198;6.010;2023-02-19T12:24:15;102257.03;;;16.15;56.76
70976;BME280;58635;51.198;6.010;2023-02-19T12:29:23;102251.34;;;16.04;56.77
70976;BME280;58635;51.198;6.010;2023-02-19T12:43:05;102254.44;;;15.52;57.39
70976;BME280;58635;51.198;6.010;2023-02-19T12:48:47;102256.91;;;15.39;57.59
70976;BME280;58635;51.198;6.010;2023-02-19T12:51:25;102253.91;;;15.35;57.66
70976;BME280;58635;51.198;6.010;2023-02-19T12:54:03;102258.31;;;15.35;57.73
70976;BME280;58635;51.198;6.010;2023-02-19T12:56:51;102260.28;;;15.33;57.93
70976;BME280;58635;51.198;6.010;2023-02-19T12:59:23;102252.88;;;15.30;57.96
70976;BME280;58635;51.198;6.010;2023-02-19T13:05:05;102251.41;;;15.27;57.95
70976;BME280;58635;51.198;6.010;2023-02-19T13:07:38;102262.84;;;15.26;58.03
70976;BME280;58635;51.198;6.010;2023-02-19T13:10:24;102263.66;;;15.27;58.20
70976;BME280;58635;51.198;6.010;2023-02-19T13:12:52;102263.03;;;15.25;58.32
70976;BME280;58635;51.198;6.010;2023-02-19T13:15:34;102262.19;;;15.17;58.34
70976;BME280;58635;51.198;6.010;2023-02-19T13:18:02;102277.81;;;15.17;58.13
70976;BME280;58635;51.198;6.010;2023-02-19T13:20:41;102278.16;;;15.14;58.55
70976;BME280;58635;51.198;6.010;2023-02-19T13:23:12;102280.97;;;15.13;58.71
70976;BME280;58635;51.198;6.010;2023-02-19T13:29:04;102278.50;;;15.05;58.80
70976;BME280;58635;51.198;6.010;2023-02-19T13:37:31;102280.53;;;15.09;59.08
70976;BME280;58635;51.198;6.010;2023-02-19T13:40:03;102291.19;;;15.14;59.01
70976;BME280;58635;51.198;6.010;2023-02-19T13:42:33;102288.06;;;15.19;59.09
70976;BME280;58635;51.198;6.010;2023-02-19T13:45:00;102284.69;;;15.25;58.96
70976;BME280;58635;51.198;6.010;2023-02-19T13:50:16;102284.66;;;15.18;59.08
70976;BME280;58635;51.198;6.010;2023-02-19T13:52:42;102288.66;;;15.21;59.10
70976;BME280;58635;51.198;6.010;2023-02-19T14:01:00;102310.25;;;15.15;59.13
70976;BME280;58635;51.198;6.010;2023-02-19T14:03:26;102309.81;;;15.11;58.96
70976;BME280;58635;51.198;6.010;2023-02-19T14:06:02;102318.44;;;15.12;58.92
70976;BME280;58635;51.198;6.010;2023-02-19T14:08:53;102327.69;;;15.14;58.93
70976;BME280;58635;51.198;6.010;2023-02-19T14:14:35;102333.97;;;15.20;58.71
70976;BME280;58635;51.198;6.010;2023-02-19T14:25:51;102331.34;;;14.99;58.63
70976;BME280;58635;51.198;6.010;2023-02-19T14:28:22;102337.94;;;14.95;58.71
70976;BME280;58635;51.198;6.010;2023-02-19T14:33:30;102350.50;;;14.91;58.44
70976;BME280;58635;51.198;6.010;2023-02-19T14:36:17;102350.25;;;14.86;58.56
70976;BME280;58635;51.198;6.010;2023-02-19T14:38:47;102342.72;;;14.76;58.63
70976;BME280;58635;51.198;6.010;2023-02-19T14:41:15;102351.34;;;14.77;58.70
70976;BME280;58635;51.198;6.010;2023-02-19T14:43:43;102348.31;;;14.73;58.68
70976;BME280;58635;51.198;6.010;2023-02-19T14:46:40;102355.50;;;14.71;58.62
70976;BME280;58635;51.198;6.010;2023-02-19T14:49:46;102359.91;;;14.71;58.65
70976;BME280;58635;51.198;6.010;2023-02-19T14:52:20;102355.69;;;14.70;58.70
70976;BME280;58635;51.198;6.010;2023-02-19T14:57:47;102357.63;;;14.68;58.82
70976;BME280;58635;51.198;6.010;2023-02-19T15:00:41;102360.41;;;14.66;58.46
70976;BME280;58635;51.198;6.010;2023-02-19T15:03:25;102356.56;;;14.62;58.46
70976;BME280;58635;51.198;6.010;2023-02-19T15:05:57;102355.59;;;14.63;57.82
70976;BME280;58635;51.198;6.010;2023-02-19T15:08:30;102344.72;;;14.59;57.19
70976;BME280;58635;51.198;6.010;2023-02-19T15:10:57;102344.44;;;14.54;57.31
70976;BME280;58635;51.198;6.010;2023-02-19T15:13:26;102343.47;;;14.55;56.70
70976;BME280;58635;51.198;6.010;2023-02-19T15:15:52;102344.44;;;14.54;56.67
70976;BME280;58635;51.198;6.010;2023-02-19T15:18:22;102346.88;;;14.56;56.06